Time;durP1;ratioP1;P1;durP2;ratioP2;P2;SDS_P1;SDS_P2;PMS_P1;PMS_P2;Temp;Humidity;BMP_temperature;BMP_pressure;BME280_temperature;BME280_humidity;BME280_pressure;Samples;Min_cycle;Max_cycle;Signal;HPM_P1;HPM_P2
2022/01/29 00:03:42;;;;;;;10.27;3.80;;;5.80;99.90;;;;;;6735035;88;20215;-76
2022/01/29 00:13:42;;;;;;;9.95;3.50;;;5.80;99.90;;;;;;6727623;77;20206;-77
2022/01/29 00:23:43;;;;;;;8.05;3.35;;;6.00;99.90;;;;;;6731972;88;20684;-77
2022/01/29 00:33:43;;;;;;;10.20;3.85;;;5.90;99.90;;;;;;6735325;88;20192;-77
2022/01/29 00:43:44;;;;;;;11.95;4.20;;;5.90;99.90;;;;;;6730801;88;20689;-77
2022/01/29 00:53:44;;;;;;;11.77;4.22;;;5.90;99.90;;;;;;6720948;88;20624;-77
2022/01/29 01:03:45;;;;;;;10.90;4.37;;;5.90;99.90;;;;;;6717965;88;20200;-78
2022/01/29 01:13:45;;;;;;;11.50;4.50;;;6.00;99.90;;;;;;6717565;88;20209;-77
2022/01/29 01:23:46;;;;;;;9.82;4.05;;;6.00;99.90;;;;;;6717466;88;20210;-78
2022/01/29 01:33:48;;;;;;;12.70;5.00;;;6.00;99.90;;;;;;6717156;88;20225;-78
2022/01/29 01:43:48;;;;;;;13.43;5.03;;;5.90;99.90;;;;;;6718702;88;20209;-77
2022/01/29 01:53:49;;;;;;;13.20;4.80;;;5.90;99.90;;;;;;6733679;88;20292;-76
2022/01/29 02:03:49;;;;;;;11.30;4.97;;;6.00;99.90;;;;;;6730013;88;20266;-77
2022/01/29 02:13:50;;;;;;;11.18;4.82;;;6.10;99.90;;;;;;6734761;88;20195;-77
2022/01/29 02:23:51;;;;;;;12.02;4.22;;;6.00;99.90;;;;;;6734238;88;20652;-77
2022/01/29 02:33:52;;;;;;;12.93;5.50;;;6.00;99.90;;;;;;6737107;88;20691;-77
2022/01/29 02:43:52;;;;;;;11.52;4.82;;;6.10;99.90;;;;;;6748565;88;20173;-77
2022/01/29 02:53:53;;;;;;;14.15;5.87;;;6.30;99.90;;;;;;6733185;88;20214;-77
2022/01/29 03:03:54;;;;;;;13.77;5.95;;;6.40;99.90;;;;;;6736158;88;20665;-78
2022/01/29 03:13:54;;;;;;;13.02;5.90;;;6.40;99.90;;;;;;6735834;88;20256;-77
2022/01/29 03:23:55;;;;;;;11.82;5.65;;;6.40;99.90;;;;;;6735845;88;20176;-77
2022/01/29 03:33:55;;;;;;;14.18;5.60;;;6.50;99.90;;;;;;6736169;88;20702;-77
2022/01/29 03:44:01;;;;;;;13.17;5.33;;;6.50;99.90;;;;;;6732036;88;20208;-77
2022/01/29 03:54:02;;;;;;;13.47;5.70;;;6.60;99.90;;;;;;6735799;88;20517;-77
2022/01/29 04:04:03;;;;;;;14.77;5.95;;;6.50;99.90;;;;;;6725054;88;20544;-77
2022/01/29 04:14:12;;;;;;;14.23;5.72;;;6.50;99.90;;;;;;6717861;88;20698;-77
2022/01/29 04:24:13;;;;;;;11.85;5.37;;;6.60;99.90;;;;;;6714826;88;20199;-77
2022/01/29 04:34:14;;;;;;;12.02;4.72;;;6.60;99.90;;;;;;6718397;88;20185;-77
2022/01/29 04:44:14;;;;;;;10.68;4.60;;;6.70;99.90;;;;;;6717472;88;21017;-78
2022/01/29 04:54:15;;;;;;;9.35;4.00;;;6.70;99.90;;;;;;6714113;88;20201;-77
2022/01/29 05:04:15;;;;;;;7.37;3.42;;;6.80;99.90;;;;;;6719760;88;20181;-77
2022/01/29 05:14:37;;;;;;;8.18;3.37;;;6.80;99.90;;;;;;6733510;88;20308;-77
2022/01/29 05:34:57;;;;;;;4.15;2.35;;;6.90;99.90;;;;;;6716874;88;20174;-78
2022/01/29 05:44:57;;;;;;;3.65;1.87;;;7.00;99.90;;;;;;6717004;88;20212;-77
2022/01/29 05:54:58;;;;;;;4.00;1.50;;;7.00;99.90;;;;;;6713118;88;20203;-77
2022/01/29 06:04:58;;;;;;;3.65;1.67;;;7.00;99.90;;;;;;6716634;88;20200;-77
2022/01/29 06:14:59;;;;;;;2.47;1.40;;;7.10;99.90;;;;;;6732527;77;20184;-76
2022/01/29 06:24:59;;;;;;;2.28;1.08;;;7.00;99.90;;;;;;6744610;88;20341;-76
2022/01/29 06:35:00;;;;;;;2.10;0.90;;;6.80;99.90;;;;;;6742099;88;20247;-76
2022/01/29 06:45:00;;;;;;;1.45;0.55;;;6.90;99.90;;;;;;6737137;88;20189;-76
2022/01/29 06:55:01;;;;;;;1.62;0.50;;;6.90;99.90;;;;;;6736519;88;20196;-73
2022/01/29 07:05:04;;;;;;;1.33;0.50;;;7.00;99.90;;;;;;6758338;88;20287;-74
2022/01/29 07:15:10;;;;;;;1.87;0.60;;;7.10;99.90;;;;;;6758645;88;20184;-74
2022/01/29 07:25:10;;;;;;;1.35;0.50;;;7.30;99.90;;;;;;6745829;88;20299;-76
2022/01/29 07:35:11;;;;;;;0.90;0.30;;;7.30;99.90;;;;;;6746392;87;20217;-74
2022/01/29 07:45:12;;;;;;;0.88;0.30;;;7.40;99.90;;;;;;6751904;88;20600;-78
2022/01/29 07:55:12;;;;;;;0.62;0.30;;;7.50;99.90;;;;;;6751374;88;20200;-76
2022/01/29 08:05:13;;;;;;;1.73;0.35;;;7.60;99.90;;;;;;6751769;88;20207;-76
2022/01/29 08:15:14;;;;;;;1.52;0.50;;;7.70;99.90;;;;;;6750014;88;20374;-74
2022/01/29 08:25:16;;;;;;;1.17;0.50;;;7.90;99.90;;;;;;6750275;88;20189;-74
2022/01/29 08:35:16;;;;;;;1.30;0.60;;;8.00;99.90;;;;;;6754173;88;20172;-77
2022/01/29 08:45:17;;;;;;;1.10;0.43;;;8.00;99.90;;;;;;6749447;88;20185;-77
2022/01/29 08:55:18;;;;;;;1.20;0.60;;;8.20;99.90;;;;;;6746489;88;20257;-75
2022/01/29 09:05:18;;;;;;;1.92;0.65;;;8.40;99.90;;;;;;6749790;88;20665;-75
2022/01/29 09:15:19;;;;;;;1.33;0.68;;;8.50;99.90;;;;;;6749738;88;20220;-74
2022/01/29 09:25:20;;;;;;;1.87;0.70;;;8.70;99.90;;;;;;6748885;88;20188;-74
2022/01/29 09:35:22;;;;;;;1.60;0.80;;;8.80;99.90;;;;;;6749874;87;20306;-74
2022/01/29 09:45:24;;;;;;;1.75;0.68;;;8.80;99.90;;;;;;6759074;88;20188;-75
2022/01/29 09:55:25;;;;;;;2.17;0.70;;;9.00;99.90;;;;;;6745506;88;20196;-74
2022/01/29 10:05:37;;;;;;;1.67;0.52;;;9.30;99.90;;;;;;6749164;88;20191;-74
2022/01/29 10:15:37;;;;;;;1.30;0.70;;;9.50;99.90;;;;;;6752219;88;20196;-74
2022/01/29 10:25:42;;;;;;;1.65;0.70;;;9.70;99.90;;;;;;6748750;88;20662;-74
2022/01/29 10:35:44;;;;;;;1.60;0.70;;;9.80;99.90;;;;;;6749023;88;20181;-75
2022/01/29 10:45:44;;;;;;;1.10;0.65;;;9.90;99.90;;;;;;6748119;88;20606;-75
2022/01/29 10:55:59;;;;;;;1.73;0.70;;;10.10;99.90;;;;;;6740392;88;20203;-75
2022/01/29 11:06:00;;;;;;;2.72;0.60;;;10.10;99.90;;;;;;6745918;88;20351;-75
2022/01/29 11:16:02;;;;;;;0.90;0.30;;;10.20;99.90;;;;;;6754239;88;20337;-76
2022/01/29 11:26:03;;;;;;;3.12;0.30;;;10.60;99.90;;;;;;6742258;88;20245;-75
2022/01/29 11:36:03;;;;;;;1.17;0.33;;;11.20;99.90;;;;;;6750480;88;20209;-75
2022/01/29 11:46:31;;;;;;;0.60;0.20;;;11.00;99.90;;;;;;6749796;88;20504;-75
2022/01/29 11:56:40;;;;;;;0.70;0.30;;;10.90;99.90;;;;;;6750962;88;20287;-75
2022/01/29 12:07:04;;;;;;;0.88;0.30;;;10.70;99.90;;;;;;6749582;88;20210;-75
2022/01/29 12:17:05;;;;;;;0.50;0.10;;;10.70;99.90;;;;;;6752308;77;20210;-78
2022/01/29 12:27:07;;;;;;;0.75;0.20;;;10.70;99.90;;;;;;6733677;88;20338;-78
2022/01/29 12:37:14;;;;;;;0.93;0.25;;;10.70;99.90;;;;;;6736569;88;20213;-78
2022/01/29 12:47:27;;;;;;;0.55;0.20;;;10.80;99.90;;;;;;6734892;88;20266;-78
2022/01/29 12:57:42;;;;;;;0.37;0.20;;;10.90;99.90;;;;;;6724361;88;20220;-78
2022/01/29 13:07:46;;;;;;;0.52;0.10;;;11.00;99.90;;;;;;6726623;88;20622;-78
2022/01/29 13:17:47;;;;;;;0.88;0.28;;;11.10;99.90;;;;;;6732919;88;20702;-77
2022/01/29 13:27:53;;;;;;;0.50;0.20;;;11.20;99.90;;;;;;6734786;88;20199;-78
2022/01/29 13:37:59;;;;;;;0.62;0.30;;;11.70;99.90;;;;;;6736078;88;20325;-78
2022/01/29 13:48:07;;;;;;;1.00;0.47;;;11.70;99.90;;;;;;6733038;88;20173;-76
2022/01/29 13:58:10;;;;;;;3.22;0.80;;;11.70;99.90;;;;;;6735411;88;20343;-78
2022/01/29 14:08:15;;;;;;;2.47;0.85;;;11.70;99.90;;;;;;6735336;88;20235;-78
2022/01/29 14:18:15;;;;;;;1.67;0.60;;;11.50;99.90;;;;;;6735005;88;20237;-77
2022/01/29 14:28:16;;;;;;;1.75;0.60;;;11.60;99.90;;;;;;6735609;88;20257;-78
2022/01/29 14:38:16;;;;;;;2.50;0.80;;;11.40;99.90;;;;;;6734931;88;20207;-78
2022/01/29 14:48:17;;;;;;;2.33;0.75;;;11.30;99.90;;;;;;6732311;88;20921;-78
2022/01/29 14:58:18;;;;;;;2.45;0.80;;;11.30;99.90;;;;;;6734353;88;20185;-78
2022/01/29 15:08:18;;;;;;;4.35;1.00;;;11.40;99.90;;;;;;6730557;88;20332;-78
2022/01/29 15:18:19;;;;;;;3.33;0.90;;;11.30;99.90;;;;;;6730326;88;20198;-78
2022/01/29 15:28:19;;;;;;;5.15;0.70;;;11.20;99.90;;;;;;6730127;88;20217;-78
2022/01/29 15:38:20;;;;;;;3.47;0.90;;;11.20;99.90;;;;;;6733889;88;20317;-77
2022/01/29 15:48:22;;;;;;;2.35;0.90;;;10.90;99.90;;;;;;6750144;88;20698;-78
2022/01/29 15:58:23;;;;;;;2.30;1.20;;;10.40;99.90;;;;;;6737379;88;20205;-78
2022/01/29 16:08:24;;;;;;;3.55;1.35;;;10.30;99.90;;;;;;6728355;87;20617;-78
2022/01/29 16:18:25;;;;;;;4.18;1.87;;;10.30;99.90;;;;;;6732041;88;20337;-77
2022/01/29 16:28:26;;;;;;;4.55;1.85;;;10.10;99.90;;;;;;6732117;88;20180;-78
2022/01/29 16:38:26;;;;;;;4.00;2.10;;;10.00;99.90;;;;;;6732635;88;20228;-77
2022/01/29 16:48:27;;;;;;;5.12;2.00;;;10.10;99.90;;;;;;6734216;88;20244;-77
2022/01/29 16:58:28;;;;;;;4.72;1.90;;;10.00;99.90;;;;;;6733012;88;20239;-77
2022/01/29 17:08:28;;;;;;;2.65;1.60;;;9.90;99.90;;;;;;6731196;88;20189;-78
2022/01/29 17:18:29;;;;;;;3.33;1.70;;;9.70;99.90;;;;;;6737519;88;20196;-78
2022/01/29 17:28:30;;;;;;;2.35;1.27;;;9.80;99.90;;;;;;6736073;88;20579;-78
2022/01/29 17:38:35;;;;;;;4.70;1.67;;;10.00;99.90;;;;;;6744951;88;20204;-77
2022/01/29 17:48:35;;;;;;;2.90;1.42;;;10.00;99.90;;;;;;6715859;88;20337;-77
2022/01/29 17:58:36;;;;;;;3.67;1.73;;;10.30;99.90;;;;;;6736588;88;20185;-78
2022/01/29 18:08:36;;;;;;;4.50;1.90;;;10.40;99.90;;;;;;6738878;77;20696;-76
2022/01/29 18:18:37;;;;;;;5.07;1.98;;;10.60;99.90;;;;;;6665433;88;20599;-78
2022/01/29 18:28:37;;;;;;;4.57;1.60;;;10.80;99.90;;;;;;6660967;88;20209;-78
2022/01/29 18:38:38;;;;;;;6.90;1.90;;;10.80;99.90;;;;;;6657410;88;20523;-77
2022/01/29 18:48:39;;;;;;;5.37;2.35;;;11.00;99.90;;;;;;6660142;88;20191;-78
2022/01/29 18:58:41;;;;;;;6.40;2.07;;;11.00;99.90;;;;;;6669703;88;20232;-75
2022/01/29 19:08:43;;;;;;;4.60;2.28;;;11.00;99.90;;;;;;6662554;88;20236;-77
2022/01/29 19:18:44;;;;;;;7.68;2.25;;;11.10;99.90;;;;;;6753055;88;20164;-76
2022/01/29 19:28:45;;;;;;;5.87;2.50;;;11.00;99.90;;;;;;6751010;88;20188;-76
2022/01/29 19:38:46;;;;;;;8.05;2.62;;;11.10;99.90;;;;;;6745810;88;20703;-75
2022/01/29 19:48:48;;;;;;;4.22;2.10;;;11.10;99.90;;;;;;6752142;87;20260;-76
2022/01/29 19:58:52;;;;;;;8.35;2.67;;;11.10;99.90;;;;;;6742032;88;20189;-76
2022/01/29 20:08:54;;;;;;;5.93;3.10;;;11.00;99.90;;;;;;6732805;88;20211;-75
2022/01/29 20:18:55;;;;;;;14.05;3.92;;;10.90;99.90;;;;;;6733726;88;20237;-76
2022/01/29 20:28:57;;;;;;;11.27;3.25;;;10.20;99.90;;;;;;6737838;88;20197;-74
2022/01/29 20:39:06;;;;;;;11.65;2.40;;;9.40;99.90;;;;;;6742911;88;20230;-75
2022/01/29 20:49:10;;;;;;;10.15;2.15;;;9.60;99.90;;;;;;6738649;88;20597;-76
2022/01/29 20:59:10;;;;;;;15.55;2.75;;;9.50;99.90;;;;;;6732509;88;20275;-77
2022/01/29 21:09:11;;;;;;;14.23;2.53;;;9.30;99.90;;;;;;6729620;88;20224;-77
2022/01/29 21:19:12;;;;;;;11.02;2.12;;;9.20;99.90;;;;;;6730307;88;20224;-75
2022/01/29 21:29:12;;;;;;;11.18;2.20;;;9.10;99.90;;;;;;6731927;88;20380;-75
2022/01/29 21:39:13;;;;;;;14.50;2.67;;;9.30;99.90;;;;;;6731979;88;20625;-75
2022/01/29 21:49:14;;;;;;;16.35;2.83;;;9.20;99.90;;;;;;6736771;88;20337;-75
2022/01/29 21:59:16;;;;;;;13.75;2.85;;;9.10;99.90;;;;;;6720300;88;20836;-76
2022/01/29 22:09:16;;;;;;;15.95;3.12;;;9.00;99.90;;;;;;6735729;88;20232;-76
2022/01/29 22:19:17;;;;;;;13.07;2.58;;;8.90;99.90;;;;;;6723307;88;20733;-76
2022/01/29 22:29:18;;;;;;;22.70;3.20;;;8.90;99.90;;;;;;6729001;88;20206;-75
2022/01/29 22:39:22;;;;;;;19.05;2.37;;;8.90;99.90;;;;;;6746956;88;20213;-76
2022/01/29 22:49:23;;;;;;;16.83;2.40;;;8.70;99.90;;;;;;6732032;88;20263;-75
2022/01/29 22:59:24;;;;;;;18.02;3.10;;;8.70;99.90;;;;;;6735004;88;20621;-76
2022/01/29 23:09:35;;;;;;;19.35;3.08;;;8.60;99.90;;;;;;6734203;88;20254;-76
2022/01/29 23:29:46;;;;;;;19.67;3.00;;;8.70;99.90;;;;;;6662657;88;20217;-75
2022/01/29 23:39:56;;;;;;;20.85;2.85;;;8.60;99.90;;;;;;6662663;88;20632;-75
2022/01/29 23:49:56;;;;;;;18.80;3.15;;;8.60;99.90;;;;;;6668652;88;20217;-76
